createdAt,value
2018-07-19T00:04:23.864Z,82.40
2018-07-19T00:09:28.578Z,82.50
2018-07-19T00:14:33.327Z,83.20
2018-07-19T00:19:38.512Z,83.10
2018-07-19T00:24:43.777Z,83.80
2018-07-19T00:29:48.720Z,83.60
2018-07-19T00:34:53.364Z,84.80
2018-07-19T00:39:58.966Z,84.10
2018-07-19T00:45:03.672Z,85.00
2018-07-19T00:50:08.537Z,82.60
2018-07-19T00:55:13.686Z,81.40
2018-07-19T01:00:18.629Z,80.20
2018-07-19T01:05:23.326Z,79.70
2018-07-19T01:10:28.023Z,80.10
2018-07-19T01:15:32.907Z,81.00
2018-07-19T01:20:37.680Z,82.30
2018-07-19T01:25:43.851Z,84.00
2018-07-19T01:30:48.662Z,85.40
2018-07-19T01:35:53.918Z,86.90
2018-07-19T01:40:58.733Z,87.50
2018-07-19T01:46:03.705Z,88.00
2018-07-19T01:51:08.367Z,87.70
2018-07-19T01:56:12.847Z,87.60
2018-07-19T02:01:17.790Z,87.40
2018-07-19T02:06:23.023Z,87.50
2018-07-19T02:11:27.797Z,87.30
2018-07-19T02:16:32.524Z,88.90
2018-07-19T02:21:37.462Z,88.30
2018-07-19T02:26:42.199Z,88.20
2018-07-19T02:31:46.764Z,87.80
2018-07-19T02:36:52.262Z,88.40
2018-07-19T02:41:56.925Z,89.20
2018-07-19T02:47:01.550Z,88.60
2018-07-19T02:52:06.553Z,89.00
2018-07-19T02:57:11.294Z,91.90
2018-07-19T03:02:15.981Z,92.10
2018-07-19T03:07:21.118Z,92.10
2018-07-19T03:12:26.177Z,92.00
2018-07-19T03:17:30.836Z,91.80
2018-07-19T03:22:35.560Z,91.10
2018-07-19T03:27:40.743Z,92.00
2018-07-19T03:32:45.721Z,92.40
2018-07-19T03:37:50.412Z,92.30
2018-07-19T03:42:55.137Z,93.40
2018-07-19T03:47:59.930Z,93.20
2018-07-19T03:53:05.018Z,92.70
2018-07-19T06:13:45.566Z,92.60
2018-07-19T06:18:50.246Z,85.90
2018-07-19T06:23:54.896Z,85.20
2018-07-19T06:28:59.415Z,84.80
2018-07-19T06:34:04.237Z,84.80
2018-07-19T06:39:09.906Z,83.60
2018-07-19T06:44:14.841Z,83.90
2018-07-19T06:49:19.533Z,83.20
2018-07-19T06:54:24.195Z,82.70
2018-07-19T06:59:28.908Z,82.00
2018-07-19T07:04:34.301Z,82.00
2018-07-19T07:09:39.058Z,80.90
2018-07-19T07:14:45.106Z,81.30
2018-07-19T07:19:49.840Z,80.50
2018-07-19T07:24:54.795Z,80.00
2018-07-19T07:29:59.537Z,80.00
2018-07-19T07:35:04.977Z,80.20
2018-07-19T07:40:10.179Z,79.20
2018-07-19T07:45:14.880Z,79.80
2018-07-19T07:50:19.492Z,78.90
2018-07-19T07:55:24.320Z,79.00
2018-07-19T08:00:29.988Z,78.00
2018-07-19T08:05:34.737Z,79.00
2018-07-19T08:10:39.452Z,81.70
2018-07-19T08:15:44.163Z,82.90
2018-07-19T08:20:48.630Z,83.60
2018-07-19T08:25:53.466Z,84.80
2018-07-19T08:30:58.161Z,84.10
2018-07-19T08:36:03.026Z,84.00
2018-07-19T08:41:07.763Z,83.80
2018-07-19T08:46:12.687Z,84.50
2018-07-19T08:51:17.358Z,84.50
2018-07-19T08:56:22.229Z,84.60
2018-07-19T09:01:27.039Z,84.60
2018-07-19T09:06:31.868Z,84.40
2018-07-19T09:11:36.681Z,85.30
2018-07-19T09:16:41.214Z,84.90
2018-07-19T09:21:46.146Z,84.30
2018-07-19T09:26:50.668Z,84.50
2018-07-19T09:31:55.584Z,84.80
2018-07-19T09:37:00.475Z,84.90
2018-07-19T09:42:05.229Z,83.80
2018-07-19T09:47:10.158Z,84.50
2018-07-19T09:52:14.774Z,82.80
2018-07-19T09:57:19.420Z,82.60
2018-07-19T10:02:24.202Z,81.50
2018-07-19T10:07:28.672Z,80.90
2018-07-19T10:12:33.440Z,80.10
2018-07-19T10:17:38.080Z,81.00
2018-07-19T10:22:43.328Z,79.90
2018-07-19T10:27:47.914Z,79.00
2018-07-19T10:32:52.561Z,79.40
2018-07-19T10:37:57.694Z,79.50
2018-07-19T10:43:02.467Z,79.60
2018-07-19T10:48:07.284Z,77.40
2018-07-19T10:53:11.851Z,78.40
2018-07-19T10:58:16.543Z,77.30
2018-07-19T11:03:21.110Z,77.30
2018-07-19T11:08:26.155Z,75.70
2018-07-19T11:13:30.544Z,76.70
2018-07-19T11:18:35.512Z,75.70
2018-07-19T11:23:40.209Z,75.20
2018-07-19T11:28:44.575Z,74.70
2018-07-19T11:33:49.311Z,74.50
2018-07-19T11:38:54.172Z,73.90
2018-07-19T11:43:58.993Z,75.10
2018-07-19T11:49:03.546Z,74.50
2018-07-19T11:54:08.069Z,74.00
2018-07-19T12:00:37.179Z,72.30
2018-07-19T12:05:41.658Z,70.10
2018-07-19T12:10:46.524Z,70.10
2018-07-19T12:15:51.243Z,69.40
2018-07-19T12:20:55.897Z,67.10
2018-07-19T12:26:01.234Z,68.20
2018-07-19T12:31:05.978Z,67.10
2018-07-19T12:36:10.799Z,66.80
2018-07-19T12:41:15.527Z,63.60
2018-07-19T12:46:23.752Z,62.30
2018-07-19T12:51:30.422Z,59.40
2018-07-19T12:56:35.076Z,59.40
2018-07-19T13:01:39.809Z,59.40
2018-07-19T13:06:44.494Z,60.70
2018-07-19T13:11:49.549Z,59.40
2018-07-19T13:16:54.358Z,57.40
2018-07-19T13:21:59.251Z,59.10
2018-07-19T13:27:03.852Z,58.40
2018-07-19T13:37:13.052Z,57.20
2018-07-19T13:42:17.484Z,58.60
2018-07-19T13:47:22.402Z,57.20
2018-07-19T13:57:36.729Z,55.30
2018-07-19T14:02:41.770Z,56.60
2018-07-19T14:07:46.605Z,55.40
2018-07-19T14:12:51.242Z,56.00
2018-07-19T14:17:55.933Z,56.60
2018-07-19T14:23:00.442Z,54.50
2018-07-19T14:28:05.116Z,54.60
2018-07-19T14:33:10.263Z,54.90
2018-07-19T14:38:15.124Z,55.50
2018-07-19T14:43:19.857Z,58.30
2018-07-19T14:48:24.590Z,56.90
2018-07-19T14:53:29.534Z,55.20
2018-07-19T14:58:34.039Z,58.30
2018-07-19T15:03:39.814Z,55.80
2018-07-19T15:08:44.652Z,54.70
2018-07-19T15:13:49.305Z,56.00
2018-07-19T15:18:54.584Z,56.70
2018-07-19T15:23:59.088Z,57.60
2018-07-19T15:29:03.658Z,56.10
2018-07-19T15:34:09.043Z,55.80
2018-07-19T15:39:13.833Z,56.10
2018-07-19T15:44:18.499Z,55.10
2018-07-19T15:49:23.229Z,55.00
2018-07-19T15:54:28.046Z,53.90
2018-07-19T15:59:32.732Z,52.10
2018-07-19T16:04:37.461Z,51.20
2018-07-19T16:09:42.058Z,49.70
2018-07-19T16:14:46.909Z,50.90
2018-07-19T16:19:51.801Z,53.20
2018-07-19T16:24:56.513Z,52.90
2018-07-19T16:30:00.894Z,52.40
2018-07-19T16:35:05.569Z,52.00
2018-07-19T16:40:10.400Z,52.60
2018-07-19T16:45:15.092Z,52.90
2018-07-19T16:50:19.783Z,53.20
2018-07-19T16:55:24.815Z,54.10
2018-07-19T17:00:29.677Z,56.80
2018-07-19T17:05:34.653Z,58.60
2018-07-19T17:10:39.245Z,60.30
2018-07-19T17:15:44.012Z,61.60
2018-07-19T17:20:48.821Z,61.40
2018-07-19T17:25:53.472Z,61.90
2018-07-19T17:30:58.238Z,62.70
2018-07-19T17:36:03.594Z,63.10
2018-07-19T17:41:08.230Z,63.10
2018-07-19T17:46:13.105Z,63.60
2018-07-19T17:51:17.616Z,64.00
2018-07-19T17:56:22.478Z,64.90
2018-07-19T18:01:27.222Z,65.00
2018-07-19T18:06:31.847Z,65.60
2018-07-19T18:11:36.526Z,65.80
2018-07-19T18:16:41.321Z,66.60
2018-07-19T18:21:47.085Z,67.40
2018-07-19T18:26:52.307Z,67.80
2018-07-19T18:31:57.273Z,68.60
2018-07-19T18:37:01.952Z,69.20
2018-07-19T18:42:06.757Z,69.50
2018-07-19T18:47:12.553Z,70.40
2018-07-19T18:52:17.572Z,71.00
2018-07-19T18:57:22.212Z,71.60
2018-07-19T19:02:27.102Z,72.00
2018-07-19T19:07:32.089Z,72.40
2018-07-19T19:12:37.642Z,73.40
2018-07-19T19:17:42.587Z,73.70
2018-07-19T19:22:47.280Z,73.50
2018-07-19T19:27:52.438Z,73.70
2018-07-19T19:34:21.557Z,74.10
2018-07-19T19:39:26.154Z,74.30
2018-07-19T19:44:30.895Z,75.00
2018-07-19T19:49:35.600Z,75.70
2018-07-19T19:54:40.381Z,76.10
2018-07-19T19:59:45.945Z,76.40
2018-07-19T20:04:50.590Z,76.90
2018-07-19T20:09:55.235Z,77.20
2018-07-19T20:15:01.048Z,77.40
2018-07-19T20:20:06.684Z,77.50
2018-07-19T20:25:12.173Z,78.10
2018-07-19T20:30:17.447Z,79.00
2018-07-19T20:35:22.222Z,79.20
2018-07-19T20:40:27.760Z,79.50
2018-07-19T20:45:32.702Z,79.00
2018-07-19T20:50:37.400Z,78.80
2018-07-19T20:55:42.317Z,79.00
2018-07-19T21:00:47.176Z,79.00
2018-07-19T21:05:52.117Z,78.80
2018-07-19T21:10:56.952Z,78.30
2018-07-19T21:16:02.812Z,78.20
2018-07-19T21:21:08.550Z,78.00
2018-07-19T21:26:13.532Z,78.50
2018-07-19T21:31:18.274Z,78.50
2018-07-19T21:36:22.906Z,78.40
2018-07-19T21:41:28.346Z,78.70
2018-07-19T21:46:33.058Z,78.50
2018-07-19T21:51:37.802Z,79.60
2018-07-19T21:56:42.653Z,80.00
2018-07-19T22:01:47.494Z,81.60
2018-07-19T22:06:52.330Z,82.40
2018-07-19T22:11:57.034Z,82.70
2018-07-19T22:17:01.626Z,83.20
2018-07-19T22:22:06.356Z,83.20
2018-07-19T22:27:10.930Z,83.20
2018-07-19T22:37:19.938Z,83.50
2018-07-19T22:42:25.111Z,83.70
2018-07-19T22:47:29.555Z,83.60
2018-07-19T22:52:34.603Z,83.40
2018-07-19T22:57:39.225Z,83.60
2018-07-19T23:02:43.953Z,83.80
2018-07-19T23:07:48.619Z,83.60
2018-07-19T23:12:53.281Z,83.50
2018-07-19T23:17:57.947Z,83.50
2018-07-19T23:23:02.658Z,83.90
2018-07-19T23:28:07.552Z,84.50
2018-07-19T23:33:12.283Z,84.70
2018-07-19T23:38:22.586Z,84.60
2018-07-19T23:43:31.206Z,85.20
2018-07-19T23:48:36.054Z,84.80
2018-07-19T23:53:40.669Z,85.00
2018-07-19T23:58:45.516Z,85.20
